createdAt,value
2022-09-28T00:00:37.436Z,5.10
2022-09-28T00:03:04.535Z,5.10
2022-09-28T00:05:32.872Z,5.00
2022-09-28T00:07:59.696Z,5.10
2022-09-28T00:10:26.602Z,5.20
2022-09-28T00:12:55.612Z,5.30
2022-09-28T00:15:22.657Z,5.40
2022-09-28T00:17:49.711Z,5.60
2022-09-28T00:20:19.426Z,5.70
2022-09-28T00:22:46.251Z,5.70
2022-09-28T00:25:13.085Z,5.60
2022-09-28T00:27:40.303Z,5.60
2022-09-28T00:30:07.490Z,5.40
2022-09-28T00:32:34.696Z,5.30
2022-09-28T00:35:01.536Z,5.20
2022-09-28T00:37:28.294Z,5.10
2022-09-28T00:39:55.549Z,5.00
2022-09-28T00:42:24.217Z,4.90
2022-09-28T00:44:51.105Z,4.80
2022-09-28T00:47:38.090Z,4.70
2022-09-28T00:50:11.498Z,4.70
2022-09-28T00:52:41.528Z,4.60
2022-09-28T00:55:10.545Z,4.70
2022-09-28T00:57:39.939Z,4.80
2022-09-28T01:00:07.294Z,5.00
2022-09-28T01:02:34.220Z,5.20
2022-09-28T01:05:03.272Z,5.20
2022-09-28T01:07:31.560Z,5.00
2022-09-28T01:09:58.679Z,4.90
2022-09-28T01:12:25.640Z,4.80
2022-09-28T01:14:52.779Z,4.60
2022-09-28T01:17:26.487Z,4.50
2022-09-28T01:20:12.448Z,4.40
2022-09-28T01:23:01.662Z,4.40
2022-09-28T01:25:45.954Z,4.50
2022-09-28T01:28:21.560Z,4.60
2022-09-28T01:31:00.000Z,4.80
2022-09-28T01:33:29.157Z,5.00
2022-09-28T01:36:13.925Z,5.10
2022-09-28T01:38:40.727Z,5.20
2022-09-28T01:41:08.193Z,5.30
2022-09-28T01:43:37.736Z,5.40
2022-09-28T01:46:19.388Z,5.30
2022-09-28T01:48:57.777Z,5.30
2022-09-28T01:51:42.419Z,5.30
2022-09-28T01:54:13.770Z,5.40
2022-09-28T01:56:51.128Z,5.10
2022-09-28T01:59:20.593Z,5.10
2022-09-28T02:01:53.055Z,5.20
2022-09-28T02:04:22.914Z,5.20
2022-09-28T02:06:52.047Z,5.10
2022-09-28T02:09:22.217Z,5.00
2022-09-28T02:11:53.936Z,5.10
2022-09-28T02:14:21.383Z,5.40
2022-09-28T02:16:51.912Z,5.20
2022-09-28T02:19:26.753Z,5.20
2022-09-28T02:22:06.159Z,5.20
2022-09-28T02:24:44.115Z,5.00
2022-09-28T02:27:40.965Z,4.90
2022-09-28T02:30:08.491Z,4.80
2022-09-28T02:32:40.345Z,4.90
2022-09-28T02:35:08.751Z,4.80
2022-09-28T02:37:35.585Z,4.90
2022-09-28T02:40:02.662Z,4.90
2022-09-28T02:42:38.146Z,5.00
2022-09-28T02:45:10.404Z,5.10
2022-09-28T02:47:55.926Z,5.20
2022-09-28T02:50:22.832Z,5.40
2022-09-28T02:52:58.933Z,5.40
2022-09-28T02:55:44.625Z,5.30
2022-09-28T02:58:12.693Z,5.20
2022-09-28T03:00:52.707Z,5.20
2022-09-28T03:03:31.158Z,5.10
2022-09-28T03:06:01.595Z,5.20
2022-09-28T03:08:37.725Z,5.40
2022-09-28T03:11:10.222Z,5.60
2022-09-28T03:13:37.846Z,5.60
2022-09-28T03:16:08.156Z,5.60
2022-09-28T03:18:36.426Z,5.50
2022-09-28T03:21:05.403Z,5.50
2022-09-28T03:23:32.202Z,5.50
2022-09-28T03:26:01.523Z,5.40
2022-09-28T03:28:29.122Z,5.50
2022-09-28T03:30:56.571Z,5.40
2022-09-28T03:33:23.577Z,5.30
2022-09-28T03:35:52.855Z,5.30
2022-09-28T03:38:19.771Z,5.40
2022-09-28T03:40:56.765Z,5.10
2022-09-28T03:43:25.255Z,5.20
2022-09-28T03:45:58.565Z,5.20
2022-09-28T03:48:31.359Z,5.20
2022-09-28T03:51:01.117Z,5.20
2022-09-28T03:53:29.926Z,5.20
2022-09-28T03:56:03.493Z,5.40
2022-09-28T03:58:31.621Z,5.40
2022-09-28T04:01:05.947Z,5.30
2022-09-28T04:03:33.426Z,5.40
2022-09-28T04:06:00.647Z,5.60
2022-09-28T04:08:29.774Z,5.90
2022-09-28T04:11:24.256Z,6.10
2022-09-28T04:13:51.165Z,6.10
2022-09-28T04:16:19.046Z,6.20
2022-09-28T04:18:57.895Z,6.20
2022-09-28T04:21:34.101Z,6.10
2022-09-28T04:24:09.527Z,5.80
2022-09-28T04:26:36.538Z,5.80
2022-09-28T04:29:16.120Z,5.80
2022-09-28T04:32:03.930Z,5.60
2022-09-28T04:34:40.703Z,5.50
2022-09-28T04:37:10.140Z,5.40
2022-09-28T04:39:38.789Z,5.50
2022-09-28T04:42:06.541Z,5.70
2022-09-28T04:44:33.534Z,6.00
2022-09-28T04:47:06.407Z,6.10
2022-09-28T04:49:35.496Z,6.30
2022-09-28T04:52:18.565Z,6.30
2022-09-28T04:54:48.699Z,6.30
2022-09-28T04:57:16.527Z,6.40
2022-09-28T04:59:43.329Z,6.30
2022-09-28T05:02:20.154Z,6.30
2022-09-28T05:05:11.005Z,6.20
2022-09-28T05:10:59.860Z,5.80
2022-09-28T05:13:27.373Z,5.90
2022-09-28T05:15:58.822Z,5.90
2022-09-28T05:18:28.172Z,5.90
2022-09-28T05:21:02.433Z,5.90
2022-09-28T05:23:34.558Z,6.00
2022-09-28T05:26:07.753Z,5.90
2022-09-28T05:28:35.941Z,5.80
2022-09-28T05:31:39.169Z,5.80
2022-09-28T05:34:21.394Z,5.60
2022-09-28T05:36:48.676Z,5.60
2022-09-28T05:39:16.882Z,5.50
2022-09-28T05:41:48.858Z,5.60
2022-09-28T05:44:17.240Z,5.70
2022-09-28T05:46:48.871Z,5.70
2022-09-28T05:49:33.075Z,5.70
2022-09-28T05:52:03.548Z,5.80
2022-09-28T05:54:32.056Z,5.90
2022-09-28T05:56:59.039Z,6.00
2022-09-28T05:59:30.644Z,6.00
2022-09-28T06:02:05.950Z,6.20
2022-09-28T06:04:38.469Z,6.30
2022-09-28T06:07:05.480Z,6.50
2022-09-28T06:09:38.004Z,6.60
2022-09-28T06:12:07.707Z,6.60
2022-09-28T06:14:49.321Z,6.60
2022-09-28T06:17:16.492Z,6.50
2022-09-28T06:19:48.045Z,6.30
2022-09-28T06:22:24.897Z,6.20
2022-09-28T06:25:00.591Z,6.10
2022-09-28T06:27:34.313Z,6.40
2022-09-28T06:30:02.815Z,6.60
2022-09-28T06:32:30.081Z,6.70
2022-09-28T06:34:57.353Z,6.80
2022-09-28T06:37:27.776Z,6.80
2022-09-28T06:40:00.107Z,6.90
2022-09-28T06:42:28.107Z,7.10
2022-09-28T06:46:12.236Z,7.30
2022-09-28T06:53:11.033Z,7.30
2022-09-28T06:55:58.939Z,7.20
2022-09-28T06:58:37.566Z,6.90
2022-09-28T07:01:07.787Z,6.80
2022-09-28T07:03:43.298Z,6.80
2022-09-28T07:06:26.789Z,6.90
2022-09-28T07:09:32.154Z,6.90
2022-09-28T07:12:21.348Z,6.60
2022-09-28T07:15:13.955Z,6.70
2022-09-28T07:17:56.367Z,6.80
2022-09-28T07:20:51.675Z,6.90
2022-09-28T07:23:20.472Z,6.80
2022-09-28T07:26:09.144Z,6.80
2022-09-28T07:28:45.858Z,6.50
2022-09-28T07:31:45.140Z,6.40
2022-09-28T07:34:43.759Z,6.50
2022-09-28T07:37:15.363Z,6.50
2022-09-28T07:40:05.110Z,6.30
2022-09-28T07:42:39.665Z,6.30
2022-09-28T07:45:13.326Z,6.50
2022-09-28T07:47:52.851Z,6.80
2022-09-28T07:50:41.273Z,7.00
2022-09-28T07:53:29.849Z,7.20
2022-09-28T07:56:14.033Z,7.10
2022-09-28T07:58:52.253Z,6.80
2022-09-28T08:01:31.014Z,6.60
2022-09-28T08:03:58.900Z,6.80
2022-09-28T08:09:40.324Z,6.50
2022-09-28T08:16:10.988Z,6.50
2022-09-28T08:25:35.059Z,7.10
2022-09-28T08:28:07.339Z,7.30
2022-09-28T08:43:54.118Z,7.40
2022-09-28T08:46:53.249Z,7.30
2022-09-28T08:50:01.032Z,7.10
2022-09-28T08:53:33.617Z,7.00
2022-09-28T08:56:41.874Z,7.10
2022-09-28T08:59:30.033Z,7.10
2022-09-28T09:02:15.000Z,7.20
2022-09-28T09:04:48.005Z,7.00
2022-09-28T09:07:39.926Z,7.00
2022-09-28T09:10:45.806Z,7.10
2022-09-28T09:13:48.054Z,7.30
2022-09-28T09:16:28.920Z,7.50
2022-09-28T09:26:36.226Z,8.00
2022-09-28T09:36:07.153Z,8.80
2022-09-28T09:39:07.791Z,9.10
2022-09-28T09:42:31.496Z,9.50
2022-09-28T09:49:32.380Z,9.40
2022-09-28T09:52:03.882Z,9.50
2022-09-28T09:54:51.921Z,9.60
2022-09-28T09:58:08.043Z,9.60
2022-09-28T10:00:54.145Z,9.80
2022-09-28T10:10:11.107Z,9.30
2022-09-28T10:12:51.150Z,9.30
2022-09-28T10:18:41.468Z,9.40
2022-09-28T10:21:15.281Z,9.20
2022-09-28T10:24:01.350Z,9.40
2022-09-28T10:29:40.017Z,9.60
2022-09-28T10:32:17.924Z,9.50
2022-09-28T10:34:50.182Z,9.60
2022-09-28T10:37:19.761Z,9.60
2022-09-28T10:40:05.589Z,9.70
2022-09-28T10:42:36.330Z,9.80
2022-09-28T10:45:19.949Z,9.80
2022-09-28T10:47:47.396Z,9.80
2022-09-28T10:50:26.672Z,9.80
2022-09-28T10:53:31.493Z,9.90
2022-09-28T10:56:37.188Z,10.00
2022-09-28T10:59:27.207Z,9.90
2022-09-28T11:02:03.295Z,9.90
2022-09-28T11:04:34.255Z,10.00
2022-09-28T11:07:01.965Z,10.00
2022-09-28T11:09:33.710Z,9.90
2022-09-28T11:12:06.897Z,9.90
2022-09-28T11:14:43.758Z,9.80
2022-09-28T11:17:18.587Z,9.80
2022-09-28T11:19:47.235Z,9.80
2022-09-28T11:22:26.261Z,9.80
2022-09-28T11:25:16.318Z,9.90
2022-09-28T11:28:06.484Z,10.00
2022-09-28T11:30:45.060Z,10.00
2022-09-28T11:33:31.339Z,10.00
2022-09-28T11:36:29.853Z,9.90
2022-09-28T11:39:06.425Z,9.90
2022-09-28T11:41:53.691Z,10.10
2022-09-28T11:44:32.695Z,10.00
2022-09-28T11:47:20.503Z,10.10
2022-09-28T11:49:54.649Z,10.00
2022-09-28T11:52:27.670Z,10.10
2022-09-28T11:54:57.644Z,10.00
2022-09-28T11:57:27.320Z,10.10
2022-09-28T11:59:59.459Z,10.00
2022-09-28T12:02:38.854Z,9.80
2022-09-28T12:05:20.764Z,9.40
2022-09-28T12:07:56.512Z,9.50
2022-09-28T12:11:15.726Z,9.50
2022-09-28T12:14:23.475Z,9.50
2022-09-28T12:17:20.105Z,9.40
2022-09-28T12:20:13.640Z,9.70
2022-09-28T12:23:04.009Z,9.90
2022-09-28T12:25:35.145Z,10.00
2022-09-28T12:28:22.385Z,9.90
2022-09-28T12:30:50.034Z,9.90
2022-09-28T12:33:17.125Z,9.60
2022-09-28T12:35:59.325Z,9.50
2022-09-28T12:38:35.277Z,9.50
2022-09-28T12:41:11.281Z,9.60
2022-09-28T12:43:58.874Z,9.60
2022-09-28T12:46:46.102Z,9.80
2022-09-28T12:52:23.647Z,9.30
2022-09-28T12:54:56.740Z,9.40
2022-09-28T12:57:42.260Z,9.10
2022-09-28T13:00:09.267Z,9.00
2022-09-28T13:02:51.474Z,8.70
2022-09-28T13:05:44.066Z,8.70
2022-09-28T13:08:16.919Z,8.90
2022-09-28T13:10:46.899Z,9.20
2022-09-28T13:13:26.150Z,9.30
2022-09-28T13:16:02.291Z,9.20
2022-09-28T13:18:33.791Z,9.20
2022-09-28T13:21:15.412Z,9.10
2022-09-28T13:23:43.315Z,9.20
2022-09-28T13:26:11.141Z,9.20
2022-09-28T13:28:38.845Z,9.30
2022-09-28T13:31:06.317Z,9.50
2022-09-28T13:33:38.303Z,9.60
2022-09-28T13:36:25.888Z,9.70
2022-09-28T13:38:53.266Z,9.70
2022-09-28T13:41:22.171Z,9.60
2022-09-28T13:43:49.306Z,9.70
2022-09-28T13:46:30.043Z,9.70
2022-09-28T13:49:03.658Z,9.70
2022-09-28T13:51:38.300Z,9.80
2022-09-28T13:54:14.285Z,9.80
2022-09-28T13:56:41.206Z,9.90
2022-09-28T13:59:27.310Z,10.00
2022-09-28T14:01:55.943Z,10.00
2022-09-28T14:04:24.428Z,10.10
2022-09-28T14:06:55.912Z,10.20
2022-09-28T14:09:41.278Z,10.20
2022-09-28T14:12:28.483Z,10.30
2022-09-28T14:14:55.534Z,10.20
2022-09-28T14:17:22.425Z,10.20
2022-09-28T14:19:55.288Z,10.10
2022-09-28T14:22:40.907Z,10.00
2022-09-28T14:25:11.059Z,9.80
2022-09-28T14:27:41.959Z,9.80
2022-09-28T14:30:11.949Z,9.70
2022-09-28T14:32:45.292Z,9.70
2022-09-28T14:35:31.529Z,9.80
2022-09-28T14:38:43.446Z,9.80
2022-09-28T14:41:26.317Z,9.70
2022-09-28T14:44:00.869Z,9.60
2022-09-28T14:46:30.080Z,9.50
2022-09-28T14:49:02.738Z,9.40
2022-09-28T14:51:30.348Z,9.40
2022-09-28T14:54:10.629Z,9.40
2022-09-28T14:56:40.609Z,9.40
2022-09-28T14:59:12.213Z,9.30
2022-09-28T15:01:39.685Z,9.30
2022-09-28T15:04:09.466Z,9.20
2022-09-28T15:06:48.513Z,9.10
2022-09-28T15:09:28.835Z,9.10
2022-09-28T15:12:12.352Z,9.10
2022-09-28T15:15:00.583Z,9.20
2022-09-28T15:17:30.333Z,9.20
2022-09-28T15:20:17.345Z,9.20
2022-09-28T15:22:48.177Z,9.10
2022-09-28T15:25:16.911Z,8.90
2022-09-28T15:27:43.894Z,8.90
2022-09-28T15:30:25.930Z,8.90
2022-09-28T15:32:56.689Z,8.80
2022-09-28T15:35:27.607Z,8.80
2022-09-28T15:37:55.286Z,8.90
2022-09-28T15:40:22.633Z,9.00
2022-09-28T15:42:49.646Z,9.00
2022-09-28T15:45:26.747Z,9.00
2022-09-28T15:47:57.725Z,9.00
2022-09-28T15:50:28.682Z,8.90
2022-09-28T15:53:05.745Z,8.90
2022-09-28T15:55:42.195Z,8.80
2022-09-28T15:58:18.324Z,8.80
2022-09-28T16:00:46.537Z,8.80
2022-09-28T16:03:27.820Z,8.70
2022-09-28T16:05:57.908Z,8.60
2022-09-28T16:08:31.740Z,8.60
2022-09-28T16:11:04.746Z,8.60
2022-09-28T16:13:32.115Z,8.60
2022-09-28T16:15:59.857Z,8.50
2022-09-28T16:18:28.308Z,8.50
2022-09-28T16:20:56.361Z,8.30
2022-09-28T16:23:41.899Z,8.30
2022-09-28T16:26:13.280Z,8.20
2022-09-28T16:28:40.873Z,8.20
2022-09-28T16:31:10.879Z,8.30
2022-09-28T16:33:43.847Z,8.30
2022-09-28T16:36:12.516Z,8.30
2022-09-28T16:38:39.404Z,8.30
2022-09-28T16:41:06.433Z,8.30
2022-09-28T16:43:35.169Z,8.30
2022-09-28T16:46:06.512Z,8.20
2022-09-28T16:48:35.111Z,8.20
2022-09-28T16:51:01.991Z,8.20
2022-09-28T16:53:47.527Z,8.10
2022-09-28T16:56:14.662Z,8.10
2022-09-28T16:58:42.558Z,8.20
2022-09-28T17:01:10.694Z,8.20
2022-09-28T17:03:37.756Z,8.20
2022-09-28T17:06:06.372Z,8.10
2022-09-28T17:08:34.604Z,8.00
2022-09-28T17:11:24.214Z,7.90
2022-09-28T17:13:52.267Z,7.90
2022-09-28T17:16:32.205Z,7.90
2022-09-28T17:19:05.736Z,8.00
2022-09-28T17:21:32.583Z,8.00
2022-09-28T17:23:59.436Z,8.10
2022-09-28T17:26:30.331Z,8.00
2022-09-28T17:28:59.545Z,7.90
2022-09-28T17:31:26.638Z,7.70
2022-09-28T17:33:54.620Z,7.60
2022-09-28T17:36:22.026Z,7.60
2022-09-28T17:38:49.558Z,7.60
2022-09-28T17:41:20.456Z,7.50
2022-09-28T17:43:47.952Z,7.50
2022-09-28T17:46:17.984Z,7.50
2022-09-28T17:48:47.121Z,7.40
2022-09-28T17:51:14.324Z,7.30
2022-09-28T17:53:41.170Z,7.00
2022-09-28T17:56:08.403Z,6.90
2022-09-28T17:58:35.267Z,6.90
2022-09-28T18:01:02.227Z,6.80
2022-09-28T18:03:29.155Z,6.80
2022-09-28T18:06:01.557Z,6.90
2022-09-28T18:08:28.499Z,6.90
2022-09-28T18:10:56.891Z,6.90
2022-09-28T18:13:24.286Z,6.80
2022-09-28T18:15:52.303Z,6.70
2022-09-28T18:18:19.337Z,6.70
2022-09-28T18:20:46.257Z,6.70
2022-09-28T18:23:13.355Z,6.70
2022-09-28T18:25:41.050Z,6.70
2022-09-28T18:28:08.175Z,6.70
2022-09-28T18:30:38.593Z,6.70
2022-09-28T18:33:05.745Z,6.80
2022-09-28T18:35:32.619Z,7.00
2022-09-28T18:37:59.882Z,7.10
2022-09-28T18:40:26.949Z,7.20
2022-09-28T18:42:53.852Z,7.20
2022-09-28T18:45:20.792Z,7.20
2022-09-28T18:47:47.721Z,7.20
2022-09-28T18:50:15.640Z,7.10
2022-09-28T18:52:44.067Z,7.10
2022-09-28T18:55:11.759Z,7.00
2022-09-28T18:57:40.583Z,6.90
2022-09-28T19:00:09.063Z,7.00
2022-09-28T19:02:36.753Z,7.00
2022-09-28T19:05:05.806Z,6.70
2022-09-28T19:07:33.463Z,6.70
2022-09-28T19:10:00.479Z,6.60
2022-09-28T19:12:27.534Z,6.50
2022-09-28T19:14:54.578Z,6.50
2022-09-28T19:17:21.471Z,6.50
2022-09-28T19:19:48.455Z,6.60
2022-09-28T19:22:15.390Z,6.70
2022-09-28T19:24:42.313Z,6.70
2022-09-28T19:27:09.253Z,6.70
2022-09-28T19:29:36.208Z,6.80
2022-09-28T19:32:03.201Z,6.80
2022-09-28T19:34:30.261Z,6.80
2022-09-28T19:36:57.334Z,6.80
2022-09-28T19:39:24.299Z,6.80
2022-09-28T19:41:51.453Z,6.80
2022-09-28T19:44:25.843Z,6.80
2022-09-28T19:46:56.842Z,6.70
2022-09-28T19:49:24.701Z,6.70
2022-09-28T19:52:13.785Z,6.60
2022-09-28T19:54:45.086Z,6.60
2022-09-28T19:57:13.255Z,6.70
2022-09-28T19:59:40.199Z,6.80
2022-09-28T20:02:08.322Z,6.90
2022-09-28T20:04:35.359Z,7.00
2022-09-28T20:07:02.420Z,7.10
2022-09-28T20:09:30.031Z,7.10
2022-09-28T20:11:57.344Z,7.20
2022-09-28T20:14:26.451Z,7.20
2022-09-28T20:16:55.083Z,7.20
2022-09-28T20:19:23.356Z,7.20
2022-09-28T20:21:50.636Z,7.20
2022-09-28T20:24:17.542Z,7.10
2022-09-28T20:26:44.786Z,7.00
2022-09-28T20:29:11.814Z,6.90
2022-09-28T20:31:38.832Z,6.90
2022-09-28T20:34:06.037Z,6.90
2022-09-28T20:36:33.326Z,6.80
2022-09-28T20:39:04.157Z,6.80
2022-09-28T20:41:36.979Z,6.70
2022-09-28T20:44:05.969Z,6.60
2022-09-28T20:46:36.537Z,6.60
2022-09-28T20:49:04.113Z,6.50
2022-09-28T20:51:31.372Z,6.40
2022-09-28T20:53:59.297Z,6.30
2022-09-28T20:56:27.760Z,6.20
2022-09-28T20:58:54.829Z,6.20
2022-09-28T21:01:23.299Z,6.30
2022-09-28T21:03:50.433Z,6.40
2022-09-28T21:06:18.729Z,6.40
2022-09-28T21:08:46.123Z,6.40
2022-09-28T21:11:13.847Z,6.40
2022-09-28T21:13:43.017Z,6.40
2022-09-28T21:16:14.433Z,6.40
2022-09-28T21:18:41.803Z,6.20
2022-09-28T21:21:09.915Z,6.20
2022-09-28T21:23:37.008Z,6.20
2022-09-28T21:26:05.071Z,6.30
2022-09-28T21:28:32.351Z,6.30
2022-09-28T21:30:59.533Z,6.30
2022-09-28T21:33:26.657Z,6.30
2022-09-28T21:35:53.510Z,6.40
2022-09-28T21:38:20.516Z,6.40
2022-09-28T21:40:47.476Z,6.20
2022-09-28T21:43:15.013Z,5.90
2022-09-28T21:45:41.967Z,5.90
2022-09-28T21:48:09.402Z,5.50
2022-09-28T21:50:36.349Z,5.40
2022-09-28T21:53:03.282Z,5.30
2022-09-28T21:55:30.206Z,5.50
2022-09-28T21:57:57.073Z,5.60
2022-09-28T22:00:24.057Z,5.60
2022-09-28T22:02:51.273Z,5.80
2022-09-28T22:05:19.302Z,6.00
2022-09-28T22:07:46.594Z,6.00
2022-09-28T22:10:14.155Z,6.00
2022-09-28T22:12:41.336Z,5.80
2022-09-28T22:15:08.534Z,5.80
2022-09-28T22:17:35.362Z,5.80
2022-09-28T22:20:02.417Z,5.80
2022-09-28T22:22:29.676Z,5.60
2022-09-28T22:24:56.652Z,5.40
2022-09-28T22:27:24.168Z,5.30
2022-09-28T22:29:51.228Z,5.30
2022-09-28T22:32:18.084Z,5.30
2022-09-28T22:34:45.116Z,5.40
2022-09-28T22:37:12.021Z,5.30
2022-09-28T22:39:41.110Z,5.30
2022-09-28T22:42:08.436Z,5.30
2022-09-28T22:44:35.992Z,5.30
2022-09-28T22:47:03.686Z,5.20
2022-09-28T22:49:31.620Z,5.20
2022-09-28T22:51:58.534Z,5.20
2022-09-28T22:54:25.430Z,5.20
2022-09-28T22:56:52.307Z,5.30
2022-09-28T22:59:19.332Z,5.30
2022-09-28T23:01:46.325Z,5.20
2022-09-28T23:04:13.409Z,5.20
2022-09-28T23:06:41.301Z,5.20
2022-09-28T23:09:08.225Z,5.30
2022-09-28T23:11:35.189Z,5.50
2022-09-28T23:14:02.279Z,5.50
2022-09-28T23:16:30.283Z,5.40
2022-09-28T23:18:57.755Z,5.40
2022-09-28T23:21:25.815Z,5.40
2022-09-28T23:23:57.002Z,5.40
2022-09-28T23:26:25.596Z,5.50
2022-09-28T23:28:52.775Z,5.50
2022-09-28T23:31:21.622Z,5.50
2022-09-28T23:33:48.848Z,5.50
2022-09-28T23:36:16.485Z,5.60
2022-09-28T23:38:43.678Z,5.70
2022-09-28T23:41:10.751Z,5.70
2022-09-28T23:43:37.685Z,5.70
2022-09-28T23:46:04.973Z,5.80
2022-09-28T23:48:31.988Z,5.80
2022-09-28T23:50:59.038Z,5.80
2022-09-28T23:53:26.053Z,6.00
2022-09-28T23:55:53.475Z,6.00
2022-09-28T23:58:20.848Z,6.00
